createdAt,value
2019-02-20T00:10:13.341Z,24.41
2019-02-20T00:16:17.970Z,22.96
2019-02-20T00:22:03.333Z,20.89
2019-02-20T00:57:42.743Z,25.5
2019-02-20T01:03:28.352Z,20.84
2019-02-20T01:09:23.378Z,20.73
2019-02-20T01:21:13.386Z,19.24
2019-02-20T01:21:13.417Z,23.66
2019-02-20T01:27:08.367Z,25.95
2019-02-20T01:33:03.389Z,24.81
2019-02-20T01:38:58.361Z,24.38
2019-02-20T01:44:53.381Z,26.02
2019-02-20T01:50:48.395Z,25.2
2019-02-20T01:56:43.401Z,23.3
2019-02-20T02:02:38.427Z,18.74
2019-02-20T02:08:33.386Z,23.17
2019-02-20T02:14:28.383Z,19.83
2019-02-20T02:26:18.411Z,21.6
2019-02-20T02:32:13.403Z,21.69
2019-02-20T02:38:08.425Z,20.16
2019-02-20T02:44:03.416Z,26.67
2019-02-20T02:49:58.424Z,21.43
2019-02-20T02:55:53.448Z,20.7
2019-02-20T03:01:48.433Z,23.34
2019-02-20T03:07:43.427Z,19.19
2019-02-20T03:13:38.419Z,20.54
2019-02-20T03:19:33.509Z,21.46
2019-02-20T03:25:28.434Z,20.38
2019-02-20T03:31:23.434Z,20.94
2019-02-20T03:37:18.420Z,20.75
2019-02-20T03:43:13.439Z,23.75
2019-02-20T03:49:08.523Z,20.76
2019-02-20T03:55:03.450Z,18.9
2019-02-20T04:00:58.499Z,23.54
2019-02-20T04:06:53.448Z,22.48
2019-02-20T04:12:48.485Z,23.83
2019-02-20T04:18:43.499Z,22.53
2019-02-20T04:24:38.450Z,20.78
2019-02-20T04:30:33.448Z,25.89
2019-02-20T04:36:28.472Z,24.96
2019-02-20T04:42:23.664Z,20.37
2019-02-20T04:54:13.908Z,21.31
2019-02-20T05:06:03.473Z,16.27
2019-02-20T05:18:03.279Z,20
2019-02-20T05:18:03.311Z,20
2019-02-20T05:23:48.503Z,20.85
2019-02-20T05:35:38.479Z,15.72
2019-02-20T05:41:59.315Z,18
2019-02-20T05:47:39.654Z,19.82
2019-02-20T05:53:23.499Z,21.77
2019-02-20T05:59:18.512Z,23.87
2019-02-20T06:11:14.597Z,17.44
2019-02-20T06:11:14.599Z,20.43
2019-02-20T06:17:03.518Z,22.18
2019-02-20T06:22:58.522Z,24.56
2019-02-20T06:29:24.423Z,22.84
2019-02-20T06:34:48.537Z,26.82
2019-02-20T06:40:43.559Z,19.67
2019-02-20T06:52:33.523Z,25.03
2019-02-20T06:58:51.666Z,26.37
2019-02-20T07:04:23.523Z,26.55
2019-02-20T07:10:18.563Z,31.23
2019-02-20T07:16:36.328Z,32.66
2019-02-20T07:22:08.564Z,42.09
2019-02-20T07:28:03.539Z,39.48
2019-02-20T07:33:58.661Z,34.78
2019-02-20T07:39:53.542Z,32.2
2019-02-20T07:46:07.910Z,36.9
2019-02-20T07:51:43.566Z,51.55
2019-02-20T07:57:38.535Z,36.45
2019-02-20T08:03:33.585Z,36.66
2019-02-20T08:09:28.556Z,40.01
2019-02-20T08:15:23.551Z,42.23
2019-02-20T08:21:18.650Z,40.41
2019-02-20T08:27:13.567Z,51.57
2019-02-20T08:33:08.576Z,60.8
2019-02-20T08:39:03.578Z,58.93
2019-02-20T08:44:58.565Z,50.3
2019-02-20T08:50:53.596Z,53.92
2019-02-20T08:56:48.601Z,53.08
2019-02-20T09:02:43.599Z,48.25
2019-02-20T09:08:38.580Z,58.88
2019-02-20T09:14:33.622Z,58.05
2019-02-20T09:20:28.610Z,60.84
2019-02-20T09:26:23.656Z,53.66
2019-02-20T09:32:18.625Z,49.07
2019-02-20T09:38:13.615Z,41.9
2019-02-20T09:44:08.637Z,39.86
2019-02-20T09:50:03.606Z,48.32
2019-02-20T09:55:58.605Z,40.57
2019-02-20T10:01:53.622Z,37.81
2019-02-20T10:07:48.621Z,30.09
2019-02-20T10:13:43.656Z,41.14
2019-02-20T10:19:38.610Z,32.65
2019-02-20T10:25:33.626Z,21.31
2019-02-20T10:31:28.651Z,22.1
2019-02-20T10:37:23.623Z,31.33
2019-02-20T10:43:18.651Z,37.98
2019-02-20T10:49:13.635Z,38.24
2019-02-20T10:55:08.671Z,30.28
2019-02-20T11:01:03.691Z,15.28
2019-02-20T11:06:58.717Z,20.05
2019-02-20T11:12:53.641Z,26.92
2019-02-20T11:18:48.668Z,24.27
2019-02-20T11:24:43.667Z,14.49
2019-02-20T11:30:38.660Z,17.83
2019-02-20T11:36:33.722Z,23.02
2019-02-20T11:42:28.700Z,22.21
2019-02-20T11:48:23.723Z,22.14
2019-02-20T11:54:18.693Z,19.6
2019-02-20T12:00:13.698Z,33.18
2019-02-20T12:06:08.710Z,95.64
2019-02-20T12:12:03.705Z,8.44
2019-02-20T12:17:58.690Z,20.75
2019-02-20T12:23:53.693Z,7.88
2019-02-20T12:29:48.700Z,6.84
2019-02-20T12:35:43.765Z,10.92
2019-02-20T12:41:40.196Z,10.11
2019-02-20T12:47:33.762Z,14.27
2019-02-20T12:53:28.726Z,12.37
2019-02-20T12:59:23.766Z,17.7
2019-02-20T13:05:18.736Z,14.74
2019-02-20T13:11:14.529Z,16.31
2019-02-20T13:17:08.729Z,14.46
2019-02-20T13:23:03.754Z,15.12
2019-02-20T13:28:58.756Z,18.33
2019-02-20T13:34:53.812Z,15.35
2019-02-20T13:40:48.817Z,13.99
2019-02-20T13:46:43.775Z,14.17
2019-02-20T13:52:38.750Z,16.4
2019-02-20T13:58:33.790Z,15.92
2019-02-20T14:04:28.800Z,14.7
2019-02-20T14:10:23.817Z,12.91
2019-02-20T14:16:18.769Z,10.12
2019-02-20T14:22:13.779Z,8.06
2019-02-20T14:28:08.801Z,7.99
2019-02-20T14:34:03.799Z,12.41
2019-02-20T14:39:58.778Z,9.97
2019-02-20T14:45:53.805Z,8.68
2019-02-20T14:51:48.808Z,13.07
2019-02-20T14:57:43.856Z,11.25
2019-02-20T15:03:38.818Z,10.15
2019-02-20T15:09:33.813Z,11.88
2019-02-20T15:15:28.852Z,10.85
2019-02-20T15:21:23.874Z,9.7
2019-02-20T15:27:19.287Z,10.98
2019-02-20T15:33:13.845Z,12.22
2019-02-20T15:39:08.829Z,13.71
2019-02-20T15:45:03.946Z,9.61
2019-02-20T15:50:58.851Z,9.14
2019-02-20T15:56:53.851Z,12.73
2019-02-20T16:02:48.864Z,14.74
2019-02-20T16:08:43.865Z,10.32
2019-02-20T16:14:38.889Z,12.41
2019-02-20T16:20:33.856Z,10.39
2019-02-20T16:26:28.850Z,8.34
2019-02-20T16:32:23.947Z,9.66
2019-02-20T16:38:18.876Z,12.37
2019-02-20T16:44:13.887Z,9.41
2019-02-20T16:50:08.899Z,12.02
2019-02-20T16:56:03.897Z,5.96
2019-02-20T17:01:58.904Z,19.11
2019-02-20T17:07:53.910Z,17.45
2019-02-20T17:13:48.906Z,19.49
2019-02-20T17:19:43.952Z,33.28
2019-02-20T17:25:38.997Z,22.72
2019-02-20T17:31:33.892Z,36.07
2019-02-20T17:37:28.900Z,28.65
2019-02-20T17:43:23.916Z,24.93
2019-02-20T17:49:18.926Z,19.19
2019-02-20T17:55:13.961Z,19.98
2019-02-20T18:01:08.955Z,19.7
2019-02-20T18:07:03.912Z,17.48
2019-02-20T18:12:58.972Z,18.28
2019-02-20T18:18:53.938Z,15.99
2019-02-20T18:24:48.936Z,19.4
2019-02-20T18:30:43.937Z,17.97
2019-02-20T18:36:38.971Z,15.64
2019-02-20T18:42:36.133Z,20.44
2019-02-20T18:48:28.937Z,20.24
2019-02-20T18:54:23.978Z,15.81
2019-02-20T19:00:19.031Z,19.01
2019-02-20T19:06:14.007Z,18.46
2019-02-20T19:12:08.985Z,25.17
2019-02-20T19:18:03.965Z,19.53
2019-02-20T19:23:58.976Z,19.88
2019-02-20T19:29:53.968Z,19.37
2019-02-20T19:35:48.983Z,16.1
2019-02-20T19:41:43.994Z,16.76
2019-02-20T19:47:39.035Z,20.52
2019-02-20T19:53:34.025Z,18.92
2019-02-20T19:59:28.984Z,14.9
2019-02-20T20:05:23.991Z,19.01
2019-02-20T20:11:18.999Z,15.93
2019-02-20T20:17:14.340Z,17
2019-02-20T20:23:09.025Z,14.21
2019-02-20T20:29:06.072Z,17.21
2019-02-20T20:34:59.003Z,17.53
2019-02-20T20:40:54.018Z,15.27
2019-02-20T20:46:50.107Z,17.17
2019-02-20T20:52:44.035Z,16.67
2019-02-20T20:58:39.013Z,15.23
2019-02-20T21:04:33.995Z,13.44
2019-02-20T21:10:29.084Z,19.35
2019-02-20T21:16:24.034Z,18.1
2019-02-20T21:22:19.041Z,13.67
2019-02-20T21:28:14.035Z,16.19
2019-02-20T21:34:09.238Z,13.65
2019-02-20T21:40:04.037Z,23.98
2019-02-20T21:45:59.088Z,25.4
2019-02-20T21:51:54.048Z,19.87
2019-02-20T21:57:49.061Z,18.53
2019-02-20T22:03:44.046Z,20.16
2019-02-20T22:09:39.094Z,21.8
2019-02-20T22:15:34.063Z,17.4
2019-02-20T22:21:29.069Z,27.12
2019-02-20T22:27:24.075Z,21.89
2019-02-20T22:33:19.090Z,15.49
2019-02-20T22:39:14.095Z,21.8
2019-02-20T22:45:09.060Z,19.48
2019-02-20T22:51:04.086Z,13.21
2019-02-20T22:56:59.123Z,14.89
2019-02-20T23:02:54.089Z,25.17
2019-02-20T23:08:49.158Z,20.78
2019-02-20T23:14:44.099Z,18.45
2019-02-20T23:20:39.099Z,16.19
2019-02-20T23:26:34.098Z,19.3
2019-02-20T23:32:29.105Z,20.15
2019-02-20T23:38:24.090Z,18.4
2019-02-20T23:44:19.112Z,20.46
2019-02-20T23:50:14.110Z,21.02
2019-02-20T23:56:09.142Z,21.57
